VICTORIA GONZALES, B current weather conditions

sailwx.info

Wind from 210 at 12 knots

Air temperature 10.6° C
Dewpoint 9.0° C

Last reported at 2020-Jul-10 13:00 UTC.
Time now 2020-Jul-10 13:44 UTC

Location: N 48°25' W 123°19'.
View on Google Maps.

See reports from other nearby stations

  
Tides and Currents Weather Stations Pressure Air Temp Water Temp Dewpoint Dewpoint Depression Visibility Wind Speed Wind Dir Waves Ship Positions
date/time (UTC)wind fromknots sea level pressurealtimeterstation pressurevisibilityair tempwater tempwave heightnotes
2020-Jul-10 13:00 210 12 10.6
2020-Jul-10 12:00 210 11 10.7
2020-Jul-10 11:00 220 9 11.4
2020-Jul-10 10:00 250 8 12.7
2020-Jul-10 09:00 230 9 12.0
2020-Jul-10 08:00 230 9 12.0
2020-Jul-10 07:00 250 8 12.9
2020-Jul-10 06:00 220 12 11.5
2020-Jul-10 05:00 240 12 gusting 17 13.6
2020-Jul-10 04:00 220 13 13.5
2020-Jul-10 03:00 210 13 13.5
2020-Jul-10 02:00 210 17 13.0
2020-Jul-10 01:00 200 13 gusting 20 13.4
2020-Jul-10 00:00 220 11 gusting 15 13.6
2020-Jul-09 23:00 230 8 15.9
2020-Jul-09 22:00 220 7 16.0
2020-Jul-09 21:00 200 5 13.7
2020-Jul-09 20:00 240 6 16.0
2020-Jul-09 19:00 190 4 12.8
2020-Jul-09 18:00 190 4 12.6
2020-Jul-09 17:00 200 2 12.3
2020-Jul-09 16:00 190 0 11.5
2020-Jul-09 15:00 160 0 11.5
2020-Jul-09 14:00 160 1 12.0
2020-Jul-09 13:00 220 1 12.3
2020-Jul-09 12:00 230 1 12.2
2020-Jul-09 11:00 260 2 11.8
2020-Jul-09 10:00 250 4 11.4
2020-Jul-09 09:00 230 4 11.2
2020-Jul-09 08:00 170 0 12.2
2020-Jul-09 07:00 190 1 13.2
2020-Jul-09 06:00 230 1 14.3
2020-Jul-09 05:00 260 7 15.3
2020-Jul-09 04:00 280 5 16.8
2020-Jul-09 03:00 280 12 gusting 20 16.7
2020-Jul-09 02:00 250 14 gusting 20 16.0
2020-Jul-09 01:00 240 13 gusting 19 13.5
2020-Jul-09 00:00 230 12 gusting 19 16.1
2020-Jul-08 23:00 200 7 15.7
2020-Jul-08 22:00 200 6 16.0
2020-Jul-08 21:00 190 8 14.5
2020-Jul-08 20:00 200 8 15.2
2020-Jul-08 19:00 200 11 15.0
2020-Jul-08 18:00 200 9 14.2
2020-Jul-08 17:00 200 7 12.8
2020-Jul-08 16:00 210 8 13.0
2020-Jul-08 15:00 230 9 11.7
2020-Jul-08 14:00 240 8 11.0
2020-Jul-08 13:00 230 6 10.4